createdAt,value
2022-08-28T00:02:35.321Z,69.47
2022-08-28T00:05:32.724Z,69.43
2022-08-28T00:08:30.742Z,69.29
2022-08-28T00:11:27.941Z,69.50
2022-08-28T00:14:25.256Z,69.77
2022-08-28T00:17:21.825Z,70.06
2022-08-28T00:20:19.969Z,70.68
2022-08-28T00:23:17.143Z,70.88
2022-08-28T00:26:33.955Z,71.16
2022-08-28T00:29:32.194Z,71.51
2022-08-28T00:32:28.995Z,71.07
2022-08-28T00:35:26.740Z,71.25
2022-08-28T00:38:24.725Z,71.85
2022-08-28T00:41:25.013Z,71.79
2022-08-28T00:44:25.748Z,72.12
2022-08-28T00:47:25.232Z,73.39
2022-08-28T00:50:24.716Z,71.92
2022-08-28T00:53:25.333Z,71.82
2022-08-28T00:56:27.872Z,71.86
2022-08-28T00:59:25.764Z,71.92
2022-08-28T01:02:23.472Z,71.42
2022-08-28T01:05:20.401Z,71.15
2022-08-28T01:08:17.118Z,71.73
2022-08-28T01:11:17.464Z,70.38
2022-08-28T01:14:15.040Z,71.20
2022-08-28T01:17:12.002Z,70.90
2022-08-28T01:20:12.569Z,71.48
2022-08-28T01:23:15.547Z,72.11
2022-08-28T01:26:13.299Z,72.58
2022-08-28T01:29:11.577Z,73.12
2022-08-28T01:32:08.934Z,73.18
2022-08-28T01:35:09.607Z,73.40
2022-08-28T01:38:07.440Z,71.61
2022-08-28T01:41:04.933Z,71.15
2022-08-28T01:44:02.243Z,71.03
2022-08-28T01:46:59.514Z,71.30
2022-08-28T01:49:56.783Z,70.81
2022-08-28T01:52:54.309Z,71.33
2022-08-28T01:55:51.365Z,72.33
2022-08-28T01:58:49.228Z,72.72
2022-08-28T02:01:46.640Z,73.67
2022-08-28T02:04:47.568Z,75.17
2022-08-28T02:07:45.745Z,74.07
2022-08-28T02:10:43.849Z,71.30
2022-08-28T02:13:41.323Z,71.62
2022-08-28T02:16:38.127Z,71.71
2022-08-28T02:19:35.516Z,72.10
2022-08-28T02:22:32.688Z,73.33
2022-08-28T02:25:30.158Z,75.48
2022-08-28T02:28:27.302Z,74.38
2022-08-28T02:31:24.609Z,72.28
2022-08-28T02:34:22.078Z,71.94
2022-08-28T02:37:20.736Z,72.55
2022-08-28T02:40:20.491Z,71.82
2022-08-28T02:43:18.618Z,75.13
2022-08-28T02:46:16.537Z,76.77
2022-08-28T02:49:13.445Z,79.01
2022-08-28T02:52:10.719Z,80.23
2022-08-28T02:55:09.120Z,81.47
2022-08-28T02:58:06.942Z,81.09
2022-08-28T03:01:06.950Z,80.81
2022-08-28T03:04:05.466Z,79.02
2022-08-28T03:07:04.347Z,79.87
2022-08-28T03:10:01.324Z,82.38
2022-08-28T03:12:58.504Z,81.72
2022-08-28T03:15:55.998Z,82.96
2022-08-28T03:18:53.400Z,84.29
2022-08-28T03:21:50.497Z,84.14
2022-08-28T03:24:50.501Z,84.81
2022-08-28T03:27:47.360Z,84.44
2022-08-28T03:30:44.414Z,83.00
2022-08-28T03:33:41.976Z,80.09
2022-08-28T03:36:40.133Z,76.34
2022-08-28T03:39:37.067Z,75.00
2022-08-28T03:42:35.157Z,75.28
2022-08-28T03:45:32.912Z,75.39
2022-08-28T03:48:32.140Z,75.89
2022-08-28T03:51:31.906Z,76.91
2022-08-28T03:54:31.790Z,75.91
2022-08-28T03:57:30.226Z,75.84
2022-08-28T04:00:27.286Z,75.79
2022-08-28T04:03:24.222Z,75.64
2022-08-28T04:06:21.251Z,75.12
2022-08-28T04:09:18.359Z,75.76
2022-08-28T04:12:15.206Z,75.72
2022-08-28T04:15:12.912Z,75.47
2022-08-28T04:18:10.464Z,75.34
2022-08-28T04:21:12.154Z,75.39
2022-08-28T04:24:09.819Z,75.78
2022-08-28T04:27:07.489Z,75.91
2022-08-28T04:30:05.453Z,75.19
2022-08-28T04:33:03.394Z,75.38
2022-08-28T04:36:04.925Z,74.89
2022-08-28T04:39:03.090Z,74.34
2022-08-28T04:42:00.625Z,74.76
2022-08-28T04:44:59.711Z,74.53
2022-08-28T04:47:58.137Z,73.91
2022-08-28T04:50:58.168Z,73.58
2022-08-28T04:53:55.750Z,73.91
2022-08-28T04:56:53.703Z,73.49
2022-08-28T04:59:51.356Z,73.94
2022-08-28T05:02:48.606Z,74.10
2022-08-28T05:05:47.318Z,73.87
2022-08-28T05:08:44.334Z,74.46
2022-08-28T05:11:41.421Z,74.18
2022-08-28T05:14:38.374Z,74.69
2022-08-28T05:17:35.423Z,75.68
2022-08-28T05:20:37.136Z,75.85
2022-08-28T05:23:34.439Z,76.16
2022-08-28T05:26:31.548Z,76.33
2022-08-28T05:29:29.810Z,76.99
2022-08-28T05:32:27.147Z,77.10
2022-08-28T05:35:24.934Z,77.08
2022-08-28T05:38:23.161Z,78.00
2022-08-28T05:41:25.097Z,79.14
2022-08-28T05:44:22.466Z,80.71
2022-08-28T05:47:21.603Z,81.16
2022-08-28T05:50:18.588Z,81.73
2022-08-28T05:53:17.041Z,81.39
2022-08-28T05:56:16.583Z,81.70
2022-08-28T05:59:13.217Z,82.59
2022-08-28T06:02:10.827Z,82.85
2022-08-28T06:05:09.415Z,83.10
2022-08-28T06:08:10.405Z,83.43
2022-08-28T06:11:07.746Z,83.55
2022-08-28T06:14:09.778Z,83.17
2022-08-28T06:17:07.699Z,83.16
2022-08-28T06:20:04.937Z,83.61
2022-08-28T06:23:02.727Z,83.84
2022-08-28T06:25:59.215Z,83.33
2022-08-28T06:29:05.611Z,84.44
2022-08-28T06:32:04.494Z,85.01
2022-08-28T06:35:01.401Z,84.35
2022-08-28T06:37:59.047Z,84.22
2022-08-28T06:40:57.342Z,83.49
2022-08-28T06:43:55.038Z,84.24
2022-08-28T06:46:53.301Z,85.59
2022-08-28T06:49:50.643Z,85.18
2022-08-28T06:52:47.844Z,84.55
2022-08-28T06:55:45.470Z,84.11
2022-08-28T06:58:43.485Z,84.18
2022-08-28T07:01:47.611Z,84.59
2022-08-28T07:04:44.469Z,84.26
2022-08-28T07:07:41.281Z,84.23
2022-08-28T07:10:38.718Z,83.81
2022-08-28T07:13:36.569Z,83.35
2022-08-28T07:16:38.331Z,82.41
2022-08-28T07:19:35.810Z,81.69
2022-08-28T07:22:32.514Z,81.84
2022-08-28T07:25:29.831Z,80.87
2022-08-28T07:28:27.380Z,79.82
2022-08-28T07:31:28.542Z,80.72
2022-08-28T07:34:27.121Z,80.50
2022-08-28T07:37:24.393Z,79.58
2022-08-28T07:40:22.396Z,79.33
2022-08-28T07:43:41.201Z,78.11
2022-08-28T07:46:38.985Z,76.96
2022-08-28T07:49:36.745Z,76.02
2022-08-28T07:52:33.575Z,75.93
2022-08-28T07:55:31.779Z,76.22
2022-08-28T07:58:28.526Z,74.68
2022-08-28T08:01:27.015Z,73.91
2022-08-28T08:04:26.620Z,73.10
2022-08-28T08:07:23.450Z,72.97
2022-08-28T08:10:20.827Z,72.07
2022-08-28T08:13:17.821Z,71.25
2022-08-28T08:16:19.445Z,70.42
2022-08-28T08:19:17.658Z,69.86
2022-08-28T08:22:14.800Z,69.21
2022-08-28T08:25:16.110Z,68.67
2022-08-28T08:28:14.005Z,68.51
2022-08-28T08:31:22.674Z,69.29
2022-08-28T08:34:19.551Z,68.94
2022-08-28T08:37:16.493Z,69.07
2022-08-28T08:40:19.207Z,67.18
2022-08-28T08:43:16.579Z,66.62
2022-08-28T08:46:13.476Z,68.22
2022-08-28T08:49:18.608Z,67.13
2022-08-28T08:52:32.186Z,66.14
2022-08-28T08:55:35.682Z,65.12
2022-08-28T08:58:41.641Z,65.34
2022-08-28T09:01:47.428Z,65.22
2022-08-28T09:04:49.066Z,63.50
2022-08-28T09:07:59.543Z,64.70
2022-08-28T09:11:24.009Z,63.06
2022-08-28T09:14:36.492Z,63.02
2022-08-28T09:18:18.145Z,63.39
2022-08-28T09:21:29.459Z,61.54
2022-08-28T09:24:28.836Z,60.41
2022-08-28T09:27:32.816Z,60.89
2022-08-28T09:30:31.007Z,60.84
2022-08-28T09:33:42.266Z,59.80
2022-08-28T09:36:39.522Z,60.93
2022-08-28T09:39:37.298Z,59.38
2022-08-28T09:42:53.214Z,59.66
2022-08-28T09:45:59.793Z,60.34
2022-08-28T09:49:11.991Z,59.95
2022-08-28T09:52:23.177Z,58.73
2022-08-28T09:55:53.652Z,58.41
2022-08-28T09:59:07.155Z,57.30
2022-08-28T10:02:05.823Z,56.36
2022-08-28T10:05:10.737Z,57.16
2022-08-28T10:08:20.209Z,58.16
2022-08-28T10:11:58.969Z,59.27
2022-08-28T10:14:59.016Z,59.39
2022-08-28T10:18:06.289Z,58.99
2022-08-28T10:21:26.862Z,58.65
2022-08-28T10:24:51.922Z,57.33
2022-08-28T10:28:14.948Z,58.03
2022-08-28T10:31:18.892Z,55.58
2022-08-28T10:34:33.910Z,57.09
2022-08-28T10:37:58.409Z,56.81
2022-08-28T10:40:59.896Z,57.84
2022-08-28T10:43:57.299Z,58.87
2022-08-28T10:46:56.010Z,57.96
2022-08-28T10:49:53.707Z,57.45
2022-08-28T10:52:55.968Z,56.69
2022-08-28T10:55:59.223Z,55.64
2022-08-28T10:58:58.988Z,55.82
2022-08-28T11:01:55.575Z,53.82
2022-08-28T11:04:58.237Z,53.81
2022-08-28T11:07:57.939Z,55.16
2022-08-28T11:10:58.914Z,53.98
2022-08-28T11:13:57.955Z,54.06
2022-08-28T11:16:57.379Z,55.46
2022-08-28T11:20:16.290Z,54.84
2022-08-28T11:23:48.390Z,53.44
2022-08-28T11:26:51.958Z,53.76
2022-08-28T11:29:58.342Z,54.41
2022-08-28T11:32:57.695Z,53.45
2022-08-28T11:35:54.578Z,54.22
2022-08-28T11:38:54.506Z,53.89
2022-08-28T11:42:09.618Z,53.80
2022-08-28T11:45:07.678Z,54.28
2022-08-28T11:48:05.051Z,56.85
2022-08-28T11:51:09.964Z,56.73
2022-08-28T11:54:44.230Z,56.37
2022-08-28T11:57:51.223Z,56.95
2022-08-28T12:00:54.864Z,56.88
2022-08-28T12:03:59.343Z,56.48
2022-08-28T12:07:11.632Z,56.36
2022-08-28T12:10:27.648Z,55.40
2022-08-28T12:13:43.024Z,55.74
2022-08-28T12:17:07.566Z,56.21
2022-08-28T12:20:12.799Z,57.17
2022-08-28T12:23:39.209Z,55.82
2022-08-28T12:26:39.842Z,55.04
2022-08-28T12:29:43.793Z,56.22
2022-08-28T12:32:47.709Z,57.28
2022-08-28T12:35:44.823Z,56.14
2022-08-28T12:38:41.694Z,57.59
2022-08-28T12:41:38.513Z,58.38
2022-08-28T12:44:35.810Z,55.77
2022-08-28T12:47:33.759Z,56.10
2022-08-28T12:50:36.260Z,53.72
2022-08-28T12:53:41.129Z,53.44
2022-08-28T12:56:38.650Z,51.30
2022-08-28T12:59:47.095Z,52.78
2022-08-28T13:02:47.629Z,53.67
2022-08-28T13:05:47.969Z,52.29
2022-08-28T13:08:45.040Z,51.44
2022-08-28T13:11:46.649Z,51.95
2022-08-28T13:14:46.151Z,51.28
2022-08-28T13:17:49.988Z,53.00
2022-08-28T13:20:46.629Z,52.29
2022-08-28T13:23:58.304Z,51.83
2022-08-28T13:27:21.625Z,51.22
2022-08-28T13:30:33.863Z,51.79
2022-08-28T13:33:31.451Z,50.21
2022-08-28T13:36:48.267Z,48.66
2022-08-28T13:39:45.994Z,50.27
2022-08-28T13:42:43.061Z,50.77
2022-08-28T13:45:43.058Z,50.58
2022-08-28T13:48:40.458Z,52.93
2022-08-28T13:51:39.458Z,50.17
2022-08-28T13:54:37.098Z,49.49
2022-08-28T13:57:36.398Z,50.49
2022-08-28T14:00:36.208Z,50.13
2022-08-28T14:03:36.510Z,50.37
2022-08-28T14:06:33.834Z,51.02
2022-08-28T14:09:30.950Z,51.26
2022-08-28T14:12:33.299Z,51.63
2022-08-28T14:15:30.695Z,49.40
2022-08-28T14:18:28.229Z,49.34
2022-08-28T14:21:26.210Z,49.38
2022-08-28T14:24:24.921Z,48.30
2022-08-28T14:27:22.059Z,50.07
2022-08-28T14:30:19.268Z,50.78
2022-08-28T14:33:19.372Z,49.32
2022-08-28T14:36:20.998Z,49.36
2022-08-28T14:39:17.948Z,50.46
2022-08-28T14:42:14.996Z,50.81
2022-08-28T14:45:11.781Z,50.16
2022-08-28T14:48:08.593Z,50.98
2022-08-28T14:51:06.078Z,48.63
2022-08-28T14:54:02.929Z,49.33
2022-08-28T14:56:59.836Z,49.62
2022-08-28T14:59:57.148Z,50.08
2022-08-28T15:02:59.707Z,48.45
2022-08-28T15:06:01.870Z,48.73
2022-08-28T15:08:59.185Z,49.18
2022-08-28T15:11:55.779Z,48.84
2022-08-28T15:14:57.110Z,49.71
2022-08-28T15:17:55.064Z,49.56
2022-08-28T15:20:52.007Z,50.37
2022-08-28T15:23:50.612Z,49.72
2022-08-28T15:26:47.925Z,48.52
2022-08-28T15:29:45.097Z,49.47
2022-08-28T15:32:44.642Z,49.15
2022-08-28T15:35:41.782Z,49.26
2022-08-28T15:38:56.993Z,49.70
2022-08-28T15:41:54.919Z,50.01
2022-08-28T15:44:52.028Z,50.42
2022-08-28T15:47:48.867Z,48.36
2022-08-28T15:50:45.785Z,48.86
2022-08-28T15:53:42.827Z,49.04
2022-08-28T15:56:41.492Z,49.44
2022-08-28T15:59:49.015Z,49.28
2022-08-28T16:02:47.900Z,49.56
2022-08-28T16:05:45.444Z,49.50
2022-08-28T16:08:43.219Z,50.61
2022-08-28T16:11:41.990Z,51.41
2022-08-28T16:14:39.314Z,52.52
2022-08-28T16:17:37.157Z,51.02
2022-08-28T16:20:33.703Z,50.84
2022-08-28T16:23:31.204Z,51.42
2022-08-28T16:26:27.940Z,52.10
2022-08-28T16:29:24.932Z,52.48
2022-08-28T16:32:23.415Z,51.94
2022-08-28T16:35:21.261Z,52.14
2022-08-28T16:38:18.997Z,52.26
2022-08-28T16:41:21.904Z,52.00
2022-08-28T16:44:23.095Z,52.07
2022-08-28T16:47:20.232Z,51.69
2022-08-28T16:50:17.653Z,52.61
2022-08-28T16:53:14.949Z,52.63
2022-08-28T16:56:17.281Z,52.13
2022-08-28T16:59:23.509Z,51.69
2022-08-28T17:02:26.712Z,52.84
2022-08-28T17:05:24.885Z,52.98
2022-08-28T17:08:21.804Z,53.05
2022-08-28T17:11:19.441Z,54.53
2022-08-28T17:14:18.163Z,54.30
2022-08-28T17:17:14.962Z,54.39
2022-08-28T17:20:31.045Z,53.60
2022-08-28T17:23:27.693Z,53.64
2022-08-28T17:26:25.034Z,53.57
2022-08-28T17:29:21.841Z,54.30
2022-08-28T17:32:19.178Z,54.63
2022-08-28T17:35:16.264Z,55.01
2022-08-28T17:38:13.614Z,54.74
2022-08-28T17:41:11.394Z,54.60
2022-08-28T17:44:08.802Z,54.04
2022-08-28T17:47:06.264Z,54.21
2022-08-28T17:50:04.915Z,54.63
2022-08-28T17:53:01.767Z,55.53
2022-08-28T17:55:59.324Z,56.25
2022-08-28T17:58:56.097Z,56.30
2022-08-28T18:01:54.100Z,56.01
2022-08-28T18:04:51.498Z,56.27
2022-08-28T18:07:49.239Z,55.69
2022-08-28T18:10:46.086Z,55.71
2022-08-28T18:13:43.445Z,55.81
2022-08-28T18:16:41.525Z,55.67
2022-08-28T18:19:40.255Z,55.37
2022-08-28T18:22:38.262Z,56.13
2022-08-28T18:25:50.820Z,55.45
2022-08-28T18:28:48.452Z,55.71
2022-08-28T18:31:45.952Z,55.85
2022-08-28T18:34:42.995Z,55.38
2022-08-28T18:37:40.039Z,55.16
2022-08-28T18:40:37.304Z,55.98
2022-08-28T18:43:35.613Z,57.35
2022-08-28T18:46:33.170Z,57.84
2022-08-28T18:49:30.373Z,58.91
2022-08-28T18:52:28.947Z,60.16
2022-08-28T18:55:27.285Z,60.48
2022-08-28T18:58:24.465Z,60.96
2022-08-28T19:01:22.482Z,60.78
2022-08-28T19:04:20.314Z,61.76
2022-08-28T19:07:18.651Z,61.67
2022-08-28T19:10:32.201Z,61.53
2022-08-28T19:13:31.433Z,62.12
2022-08-28T19:16:30.236Z,62.75
2022-08-28T19:19:27.609Z,62.58
2022-08-28T19:22:25.082Z,62.03
2022-08-28T19:25:29.235Z,61.97
2022-08-28T19:28:27.124Z,61.75
2022-08-28T19:31:25.017Z,61.78
2022-08-28T19:34:22.222Z,61.81
2022-08-28T19:37:19.009Z,61.81
2022-08-28T19:40:16.090Z,62.13
2022-08-28T19:43:16.517Z,62.89
2022-08-28T19:46:19.477Z,63.34
2022-08-28T19:49:17.311Z,62.51
2022-08-28T19:52:15.379Z,63.11
2022-08-28T19:55:26.515Z,63.20
2022-08-28T19:58:24.028Z,63.65
2022-08-28T20:01:21.408Z,62.56
2022-08-28T20:04:18.451Z,62.90
2022-08-28T20:07:16.605Z,63.50
2022-08-28T20:10:15.582Z,63.12
2022-08-28T20:13:14.153Z,63.18
2022-08-28T20:16:11.082Z,62.53
2022-08-28T20:19:10.588Z,62.87
2022-08-28T20:22:08.461Z,61.97
2022-08-28T20:25:07.266Z,62.87
2022-08-28T20:28:04.563Z,61.38
2022-08-28T20:31:11.121Z,62.27
2022-08-28T20:34:09.378Z,62.24
2022-08-28T20:37:06.029Z,62.40
2022-08-28T20:40:09.146Z,62.06
2022-08-28T20:43:07.342Z,62.29
2022-08-28T20:46:05.577Z,61.70
2022-08-28T20:49:03.382Z,61.43
2022-08-28T20:52:01.767Z,61.59
2022-08-28T20:54:59.598Z,61.07
2022-08-28T20:57:57.051Z,60.87
2022-08-28T21:00:57.234Z,61.42
2022-08-28T21:03:57.297Z,62.11
2022-08-28T21:06:54.466Z,62.53
2022-08-28T21:10:07.193Z,61.71
2022-08-28T21:13:05.548Z,62.09
2022-08-28T21:16:03.535Z,64.19
2022-08-28T21:19:16.874Z,65.88
2022-08-28T21:22:14.562Z,66.82
2022-08-28T21:25:13.559Z,66.42
2022-08-28T21:28:10.056Z,66.44
2022-08-28T21:31:11.495Z,66.09
2022-08-28T21:34:09.681Z,64.10
2022-08-28T21:37:07.311Z,63.79
2022-08-28T21:40:05.266Z,64.25
2022-08-28T21:43:02.181Z,62.71
2022-08-28T21:46:00.569Z,63.52
2022-08-28T21:48:58.091Z,63.79
2022-08-28T21:51:55.194Z,63.12
2022-08-28T21:55:17.419Z,63.59
2022-08-28T21:58:14.547Z,63.50
2022-08-28T22:01:14.334Z,63.79
2022-08-28T22:04:11.597Z,64.78
2022-08-28T22:07:12.130Z,64.12
2022-08-28T22:10:09.666Z,64.89
2022-08-28T22:13:08.078Z,64.32
2022-08-28T22:16:06.105Z,64.85
2022-08-28T22:19:04.393Z,66.06
2022-08-28T22:22:20.125Z,67.58
2022-08-28T22:25:17.317Z,70.14
2022-08-28T22:28:14.385Z,71.71
2022-08-28T22:31:11.388Z,69.91
2022-08-28T22:34:10.310Z,67.32
2022-08-28T22:37:07.876Z,67.24
2022-08-28T22:40:09.510Z,67.18
2022-08-28T22:43:10.532Z,66.84
2022-08-28T22:46:07.836Z,67.20
2022-08-28T22:49:05.491Z,67.43
2022-08-28T22:52:02.883Z,67.78
2022-08-28T22:55:00.418Z,69.01
2022-08-28T22:57:57.457Z,69.63
2022-08-28T23:00:54.174Z,70.96
2022-08-28T23:03:51.156Z,72.59
2022-08-28T23:06:48.341Z,71.76
2022-08-28T23:09:45.322Z,70.66
2022-08-28T23:12:43.371Z,72.81
2022-08-28T23:15:40.294Z,74.17
2022-08-28T23:19:03.924Z,76.20
2022-08-28T23:21:55.532Z,76.63
2022-08-28T23:24:52.544Z,77.54
2022-08-28T23:27:49.822Z,75.80
2022-08-28T23:30:49.547Z,72.83
2022-08-28T23:33:47.214Z,70.15
2022-08-28T23:36:45.261Z,68.49
2022-08-28T23:39:42.657Z,68.91
2022-08-28T23:42:40.249Z,69.85
2022-08-28T23:45:39.567Z,69.99
2022-08-28T23:48:36.197Z,70.67
2022-08-28T23:51:35.616Z,71.03
2022-08-28T23:54:32.345Z,71.03
2022-08-28T23:57:29.243Z,71.47
